sensor_id;sensor_type;location;lat;lon;timestamp;pressure;altitude;pressure_sealevel;temperature
66180;BMP280;52986;44.028;20.466;2022-10-28T00:00:49;99486.22;;;9.75
66180;BMP280;52986;44.028;20.466;2022-10-28T00:03:15;99483.56;;;9.71
66180;BMP280;52986;44.028;20.466;2022-10-28T00:05:40;99480.16;;;9.67
66180;BMP280;52986;44.028;20.466;2022-10-28T00:08:06;99477.50;;;9.64
66180;BMP280;52986;44.028;20.466;2022-10-28T00:10:31;99477.88;;;9.66
66180;BMP280;52986;44.028;20.466;2022-10-28T00:12:57;99479.00;;;9.68
66180;BMP280;52986;44.028;20.466;2022-10-28T00:15:22;99479.00;;;9.68
66180;BMP280;52986;44.028;20.466;2022-10-28T00:17:47;99475.94;;;9.70
66180;BMP280;52986;44.028;20.466;2022-10-28T00:20:13;99475.91;;;9.73
66180;BMP280;52986;44.028;20.466;2022-10-28T00:22:40;99474.38;;;9.72
66180;BMP280;52986;44.028;20.466;2022-10-28T00:25:06;99475.16;;;9.69
66180;BMP280;52986;44.028;20.466;2022-10-28T00:27:32;99475.16;;;9.69
66180;BMP280;52986;44.028;20.466;2022-10-28T00:29:57;99472.47;;;9.69
66180;BMP280;52986;44.028;20.466;2022-10-28T00:32:23;99475.94;;;9.70
66180;BMP280;52986;44.028;20.466;2022-10-28T00:34:48;99478.63;;;9.66
66180;BMP280;52986;44.028;20.466;2022-10-28T00:37:14;99469.84;;;9.66
66180;BMP280;52986;44.028;20.466;2022-10-28T00:39:39;99469.84;;;9.66
66180;BMP280;52986;44.028;20.466;2022-10-28T00:42:04;99472.47;;;9.73
66180;BMP280;52986;44.028;20.466;2022-10-28T00:44:54;99469.78;;;9.77
66180;BMP280;52986;44.028;20.466;2022-10-28T00:50:00;99470.16;;;9.75
66180;BMP280;52986;44.028;20.466;2022-10-28T00:52:29;99470.19;;;9.71
66180;BMP280;52986;44.028;20.466;2022-10-28T00:54:56;99472.16;;;9.64
66180;BMP280;52986;44.028;20.466;2022-10-28T00:57:29;99470.25;;;9.64
66180;BMP280;52986;44.028;20.466;2022-10-28T00:59:55;99461.47;;;9.64
66180;BMP280;52986;44.028;20.466;2022-10-28T01:02:21;99460.31;;;9.65
66180;BMP280;52986;44.028;20.466;2022-10-28T01:04:47;99469.03;;;9.72
66180;BMP280;52986;44.028;20.466;2022-10-28T01:07:13;99466.75;;;9.71
66180;BMP280;52986;44.028;20.466;2022-10-28T01:09:40;99460.66;;;9.67
66180;BMP280;52986;44.028;20.466;2022-10-28T01:15:13;99461.81;;;9.66
66180;BMP280;52986;44.028;20.466;2022-10-28T01:34:08;99445.88;;;9.45
66180;BMP280;52986;44.028;20.466;2022-10-28T01:36:55;99448.19;;;9.46
66180;BMP280;52986;44.028;20.466;2022-10-28T01:39:58;99445.88;;;9.48
66180;BMP280;52986;44.028;20.466;2022-10-28T01:53:34;99446.91;;;9.68
66180;BMP280;52986;44.028;20.466;2022-10-28T01:56:06;99446.06;;;9.75
66180;BMP280;52986;44.028;20.466;2022-10-28T01:58:34;99437.69;;;9.77
66180;BMP280;52986;44.028;20.466;2022-10-28T02:01:04;99441.44;;;9.83
66180;BMP280;52986;44.028;20.466;2022-10-28T02:03:30;99432.66;;;9.79
66180;BMP280;52986;44.028;20.466;2022-10-28T02:05:56;99433.44;;;9.76
66180;BMP280;52986;44.028;20.466;2022-10-28T02:08:32;99431.84;;;9.85
66180;BMP280;52986;44.028;20.466;2022-10-28T02:30:19;99433.59;;;10.06
66180;BMP280;52986;44.028;20.466;2022-10-28T02:32:49;99425.13;;;10.11
66180;BMP280;52986;44.028;20.466;2022-10-28T02:35:24;99434.31;;;10.10
66180;BMP280;52986;44.028;20.466;2022-10-28T02:37:52;99432.09;;;10.01
66180;BMP280;52986;44.028;20.466;2022-10-28T02:40:21;99427.03;;;10.11
66180;BMP280;52986;44.028;20.466;2022-10-28T02:42:51;99417.56;;;9.99
66180;BMP280;52986;44.028;20.466;2022-10-28T02:45:21;99422.16;;;10.02
66180;BMP280;52986;44.028;20.466;2022-10-28T02:47:55;99420.56;;;10.04
66180;BMP280;52986;44.028;20.466;2022-10-28T02:50:27;99424.41;;;10.07
66180;BMP280;52986;44.028;20.466;2022-10-28T02:52:55;99423.25;;;10.08
66180;BMP280;52986;44.028;20.466;2022-10-28T02:55:24;99422.44;;;10.11
66180;BMP280;52986;44.028;20.466;2022-10-28T02:57:54;99418.63;;;10.12
66180;BMP280;52986;44.028;20.466;2022-10-28T03:00:21;99418.94;;;10.18
66180;BMP280;52986;44.028;20.466;2022-10-28T03:02:49;99412.81;;;10.17
66180;BMP280;52986;44.028;20.466;2022-10-28T03:05:14;99407.94;;;10.12
66180;BMP280;52986;44.028;20.466;2022-10-28T03:07:40;99412.06;;;10.17
66180;BMP280;52986;44.028;20.466;2022-10-28T03:10:07;99412.81;;;10.17
66180;BMP280;52986;44.028;20.466;2022-10-28T03:12:33;99413.22;;;10.16
66180;BMP280;52986;44.028;20.466;2022-10-28T03:14:58;99413.69;;;10.07
66180;BMP280;52986;44.028;20.466;2022-10-28T03:17:24;99410.28;;;10.03
66180;BMP280;52986;44.028;20.466;2022-10-28T03:19:49;99408.47;;;9.93
66180;BMP280;52986;44.028;20.466;2022-10-28T03:22:14;99412.69;;;9.90
66180;BMP280;52986;44.028;20.466;2022-10-28T03:24:40;99413.16;;;9.82
66180;BMP280;52986;44.028;20.466;2022-10-28T03:27:05;99415.03;;;9.85
66180;BMP280;52986;44.028;20.466;2022-10-28T03:29:31;99417.34;;;9.79
66180;BMP280;52986;44.028;20.466;2022-10-28T03:31:56;99409.78;;;9.70
66180;BMP280;52986;44.028;20.466;2022-10-28T03:34:21;99408.31;;;9.66
66180;BMP280;52986;44.028;20.466;2022-10-28T03:36:47;99413.31;;;9.60
66180;BMP280;52986;44.028;20.466;2022-10-28T03:39:12;99414.88;;;9.54
66180;BMP280;52986;44.028;20.466;2022-10-28T03:41:38;99415.25;;;9.56
66180;BMP280;52986;44.028;20.466;2022-10-28T03:44:03;99412.25;;;9.43
66180;BMP280;52986;44.028;20.466;2022-10-28T03:46:28;99419.53;;;9.43
66180;BMP280;52986;44.028;20.466;2022-10-28T03:48:54;99419.94;;;9.41
66180;BMP280;52986;44.028;20.466;2022-10-28T03:51:19;99423.03;;;9.40
66180;BMP280;52986;44.028;20.466;2022-10-28T03:53:44;99417.28;;;9.38
66180;BMP280;52986;44.028;20.466;2022-10-28T03:56:10;99421.91;;;9.34
66180;BMP280;52986;44.028;20.466;2022-10-28T03:58:36;99421.91;;;9.27
66180;BMP280;52986;44.028;20.466;2022-10-28T04:01:01;99420.81;;;9.21
66180;BMP280;52986;44.028;20.466;2022-10-28T04:03:26;99426.22;;;9.14
66180;BMP280;52986;44.028;20.466;2022-10-28T04:05:52;99412.09;;;9.09
66180;BMP280;52986;44.028;20.466;2022-10-28T04:08:19;99428.16;;;9.06
66180;BMP280;52986;44.028;20.466;2022-10-28T04:10:45;99424.31;;;9.07
66180;BMP280;52986;44.028;20.466;2022-10-28T04:13:11;99423.94;;;9.08
66180;BMP280;52986;44.028;20.466;2022-10-28T04:15:36;99426.66;;;9.01
66180;BMP280;52986;44.028;20.466;2022-10-28T04:18:01;99428.56;;;8.97
66180;BMP280;52986;44.028;20.466;2022-10-28T04:20:27;99427.84;;;8.93
66180;BMP280;52986;44.028;20.466;2022-10-28T04:22:53;99429.75;;;8.89
66180;BMP280;52986;44.028;20.466;2022-10-28T04:25:22;99425.94;;;8.87
66180;BMP280;52986;44.028;20.466;2022-10-28T04:27:48;99422.50;;;8.86
66180;BMP280;52986;44.028;20.466;2022-10-28T04:30:13;99413.38;;;8.80
66180;BMP280;52986;44.028;20.466;2022-10-28T04:32:40;99416.44;;;8.75
66180;BMP280;52986;44.028;20.466;2022-10-28T04:35:06;99417.22;;;8.72
66180;BMP280;52986;44.028;20.466;2022-10-28T04:37:32;99412.25;;;8.70
66180;BMP280;52986;44.028;20.466;2022-10-28T04:39:57;99413.81;;;8.57
66180;BMP280;52986;44.028;20.466;2022-10-28T04:42:23;99416.13;;;8.51
66180;BMP280;52986;44.028;20.466;2022-10-28T04:44:48;99414.59;;;8.54
66180;BMP280;52986;44.028;20.466;2022-10-28T04:47:13;99423.72;;;8.60
66180;BMP280;52986;44.028;20.466;2022-10-28T04:49:39;99421.06;;;8.57
66180;BMP280;52986;44.028;20.466;2022-10-28T04:52:04;99415.75;;;8.49
66180;BMP280;52986;44.028;20.466;2022-10-28T04:54:30;99421.47;;;8.51
66180;BMP280;52986;44.028;20.466;2022-10-28T04:56:55;99425.28;;;8.47
66180;BMP280;52986;44.028;20.466;2022-10-28T04:59:20;99423.41;;;8.44
66180;BMP280;52986;44.028;20.466;2022-10-28T05:01:46;99423.78;;;8.49
66180;BMP280;52986;44.028;20.466;2022-10-28T05:04:11;99423.78;;;8.49
66180;BMP280;52986;44.028;20.466;2022-10-28T05:06:36;99423.78;;;8.49
66180;BMP280;52986;44.028;20.466;2022-10-28T05:09:02;99428.34;;;8.52
66180;BMP280;52986;44.028;20.466;2022-10-28T05:11:27;99423.78;;;8.49
66180;BMP280;52986;44.028;20.466;2022-10-28T05:13:53;99433.34;;;8.43
66180;BMP280;52986;44.028;20.466;2022-10-28T05:16:19;99434.47;;;8.42
66180;BMP280;52986;44.028;20.466;2022-10-28T05:18:44;99431.41;;;8.40
66180;BMP280;52986;44.028;20.466;2022-10-28T05:21:09;99435.22;;;8.39
66180;BMP280;52986;44.028;20.466;2022-10-28T05:23:35;99426.84;;;8.44
66180;BMP280;52986;44.028;20.466;2022-10-28T05:26:00;99432.91;;;8.45
66180;BMP280;52986;44.028;20.466;2022-10-28T05:28:25;99435.19;;;8.54
66180;BMP280;52986;44.028;20.466;2022-10-28T05:30:51;99445.09;;;8.64
66180;BMP280;52986;44.028;20.466;2022-10-28T05:33:16;99442.81;;;8.73
66180;BMP280;52986;44.028;20.466;2022-10-28T05:35:42;99440.50;;;8.71
66180;BMP280;52986;44.028;20.466;2022-10-28T05:38:07;99441.25;;;8.75
66180;BMP280;52986;44.028;20.466;2022-10-28T05:40:32;99443.53;;;8.77
66180;BMP280;52986;44.028;20.466;2022-10-28T05:42:59;99443.88;;;8.93
66180;BMP280;52986;44.028;20.466;2022-10-28T05:45:25;99441.53;;;9.02
66180;BMP280;52986;44.028;20.466;2022-10-28T05:47:51;99444.94;;;9.06
66180;BMP280;52986;44.028;20.466;2022-10-28T05:50:17;99450.28;;;9.14
66180;BMP280;52986;44.028;20.466;2022-10-28T05:52:50;99449.50;;;9.17
66180;BMP280;52986;44.028;20.466;2022-10-28T05:55:17;99455.16;;;9.26
66180;BMP280;52986;44.028;20.466;2022-10-28T05:57:47;99462.22;;;9.64
66180;BMP280;52986;44.028;20.466;2022-10-28T06:00:13;99455.97;;;10.64
66180;BMP280;52986;44.028;20.466;2022-10-28T06:02:40;99454.75;;;11.56
66180;BMP280;52986;44.028;20.466;2022-10-28T06:05:05;99453.78;;;12.37
66180;BMP280;52986;44.028;20.466;2022-10-28T06:07:31;99453.66;;;13.00
66180;BMP280;52986;44.028;20.466;2022-10-28T06:09:59;99458.78;;;13.63
66180;BMP280;52986;44.028;20.466;2022-10-28T06:12:24;99456.28;;;13.85
66180;BMP280;52986;44.028;20.466;2022-10-28T06:14:49;99461.69;;;14.30
66180;BMP280;52986;44.028;20.466;2022-10-28T06:17:15;99469.31;;;14.60
66180;BMP280;52986;44.028;20.466;2022-10-28T06:19:40;99466.31;;;14.84
66180;BMP280;52986;44.028;20.466;2022-10-28T06:22:06;99469.41;;;15.58
66180;BMP280;52986;44.028;20.466;2022-10-28T06:24:31;99470.78;;;15.97
66180;BMP280;52986;44.028;20.466;2022-10-28T06:26:56;99469.72;;;16.17
66180;BMP280;52986;44.028;20.466;2022-10-28T06:29:22;99470.03;;;15.97
66180;BMP280;52986;44.028;20.466;2022-10-28T06:31:47;99474.19;;;16.54
66180;BMP280;52986;44.028;20.466;2022-10-28T06:34:12;99472.97;;;16.86
66180;BMP280;52986;44.028;20.466;2022-10-28T06:36:38;99479.47;;;16.98
66180;BMP280;52986;44.028;20.466;2022-10-28T06:39:04;99478.13;;;17.70
66180;BMP280;52986;44.028;20.466;2022-10-28T06:41:30;99468.19;;;17.76
66180;BMP280;52986;44.028;20.466;2022-10-28T06:43:55;99474.69;;;18.90
66180;BMP280;52986;44.028;20.466;2022-10-28T06:46:20;99481.47;;;18.95
66180;BMP280;52986;44.028;20.466;2022-10-28T06:48:46;99479.59;;;18.07
66180;BMP280;52986;44.028;20.466;2022-10-28T06:51:11;99482.00;;;18.75
66180;BMP280;52986;44.028;20.466;2022-10-28T06:53:37;99489.72;;;18.58
66180;BMP280;52986;44.028;20.466;2022-10-28T06:56:02;99486.31;;;19.14
66180;BMP280;52986;44.028;20.466;2022-10-28T06:58:28;99480.72;;;19.95
66180;BMP280;52986;44.028;20.466;2022-10-28T07:00:53;99486.81;;;19.75
66180;BMP280;52986;44.028;20.466;2022-10-28T07:03:18;99488.50;;;20.81
66180;BMP280;52986;44.028;20.466;2022-10-28T07:05:45;99487.13;;;21.26
66180;BMP280;52986;44.028;20.466;2022-10-28T07:08:11;99489.53;;;20.84
66180;BMP280;52986;44.028;20.466;2022-10-28T07:10:36;99490.94;;;22.44
66180;BMP280;52986;44.028;20.466;2022-10-28T07:13:02;99492.44;;;22.13
66180;BMP280;52986;44.028;20.466;2022-10-28T07:15:27;99491.09;;;23.25
66180;BMP280;52986;44.028;20.466;2022-10-28T07:17:54;99499.03;;;23.23
66180;BMP280;52986;44.028;20.466;2022-10-28T07:20:20;99497.06;;;23.24
66180;BMP280;52986;44.028;20.466;2022-10-28T07:22:46;99497.19;;;23.91
66180;BMP280;52986;44.028;20.466;2022-10-28T07:25:11;99495.44;;;24.32
66180;BMP280;52986;44.028;20.466;2022-10-28T07:27:36;99494.81;;;24.73
66180;BMP280;52986;44.028;20.466;2022-10-28T07:30:02;99494.81;;;24.73
66180;BMP280;52986;44.028;20.466;2022-10-28T07:32:31;99491.44;;;24.00
66180;BMP280;52986;44.028;20.466;2022-10-28T07:34:57;99499.16;;;23.73
66180;BMP280;52986;44.028;20.466;2022-10-28T07:37:22;99494.88;;;23.44
66180;BMP280;52986;44.028;20.466;2022-10-28T07:39:47;99494.63;;;24.54
66180;BMP280;52986;44.028;20.466;2022-10-28T07:42:13;99491.50;;;24.96
66180;BMP280;52986;44.028;20.466;2022-10-28T07:44:38;99491.59;;;25.26
66180;BMP280;52986;44.028;20.466;2022-10-28T07:47:04;99492.16;;;25.55
66180;BMP280;52986;44.028;20.466;2022-10-28T07:49:29;99487.97;;;25.48
66180;BMP280;52986;44.028;20.466;2022-10-28T07:51:54;99483.34;;;24.80
66180;BMP280;52986;44.028;20.466;2022-10-28T07:54:20;99488.59;;;24.72
66180;BMP280;52986;44.028;20.466;2022-10-28T07:56:45;99486.16;;;25.56
66180;BMP280;52986;44.028;20.466;2022-10-28T07:59:11;99485.06;;;24.83
66180;BMP280;52986;44.028;20.466;2022-10-28T08:01:36;99485.53;;;25.99
66180;BMP280;52986;44.028;20.466;2022-10-28T08:04:02;99485.78;;;24.83
66180;BMP280;52986;44.028;20.466;2022-10-28T08:06:27;99476.78;;;26.92
66180;BMP280;52986;44.028;20.466;2022-10-28T08:08:54;99476.06;;;25.70
66180;BMP280;52986;44.028;20.466;2022-10-28T08:11:20;99485.44;;;26.77
66180;BMP280;52986;44.028;20.466;2022-10-28T08:13:50;99479.34;;;27.41
66180;BMP280;52986;44.028;20.466;2022-10-28T08:16:16;99485.47;;;27.78
66180;BMP280;52986;44.028;20.466;2022-10-28T08:18:42;99473.72;;;28.91
66180;BMP280;52986;44.028;20.466;2022-10-28T08:21:08;99483.66;;;28.47
66180;BMP280;52986;44.028;20.466;2022-10-28T08:23:34;99472.38;;;29.05
66180;BMP280;52986;44.028;20.466;2022-10-28T08:26:00;99479.22;;;28.44
66180;BMP280;52986;44.028;20.466;2022-10-28T08:28:25;99474.72;;;29.01
66180;BMP280;52986;44.028;20.466;2022-10-28T08:30:51;99470.88;;;28.70
66180;BMP280;52986;44.028;20.466;2022-10-28T08:33:17;99476.81;;;28.74
66180;BMP280;52986;44.028;20.466;2022-10-28T08:35:42;99473.88;;;28.72
66180;BMP280;52986;44.028;20.466;2022-10-28T08:38:08;99470.59;;;28.94
66180;BMP280;52986;44.028;20.466;2022-10-28T08:40:49;99469.44;;;28.90
66180;BMP280;52986;44.028;20.466;2022-10-28T08:43:42;99474.06;;;29.70
66180;BMP280;52986;44.028;20.466;2022-10-28T08:48:39;99466.34;;;28.73
66180;BMP280;52986;44.028;20.466;2022-10-28T08:51:15;99471.22;;;29.91
66180;BMP280;52986;44.028;20.466;2022-10-28T08:53:54;99470.63;;;29.57
66180;BMP280;52986;44.028;20.466;2022-10-28T08:56:42;99474.50;;;29.82
66180;BMP280;52986;44.028;20.466;2022-10-28T08:59:15;99479.13;;;29.17
66180;BMP280;52986;44.028;20.466;2022-10-28T09:01:51;99465.66;;;29.83
66180;BMP280;52986;44.028;20.466;2022-10-28T09:04:32;99470.88;;;29.66
66180;BMP280;52986;44.028;20.466;2022-10-28T09:07:00;99470.22;;;29.53
66180;BMP280;52986;44.028;20.466;2022-10-28T09:09:26;99465.16;;;29.64
66180;BMP280;52986;44.028;20.466;2022-10-28T09:17:21;99467.78;;;29.70
66180;BMP280;52986;44.028;20.466;2022-10-28T09:25:23;99469.41;;;30.30
66180;BMP280;52986;44.028;20.466;2022-10-28T09:30:40;99458.25;;;30.14
66180;BMP280;52986;44.028;20.466;2022-10-28T09:36:14;99455.72;;;29.60
66180;BMP280;52986;44.028;20.466;2022-10-28T09:38:41;99461.09;;;29.94
66180;BMP280;52986;44.028;20.466;2022-10-28T09:41:21;99455.03;;;29.67
66180;BMP280;52986;44.028;20.466;2022-10-28T09:43:55;99448.38;;;30.34
66180;BMP280;52986;44.028;20.466;2022-10-28T09:46:23;99446.25;;;30.63
66180;BMP280;52986;44.028;20.466;2022-10-28T09:48:56;99443.94;;;30.97
66180;BMP280;52986;44.028;20.466;2022-10-28T09:51:30;99446.31;;;30.78
66180;BMP280;52986;44.028;20.466;2022-10-28T09:53:58;99449.59;;;30.69
66180;BMP280;52986;44.028;20.466;2022-10-28T09:56:25;99445.06;;;31.17
66180;BMP280;52986;44.028;20.466;2022-10-28T09:58:52;99444.47;;;30.81
66180;BMP280;52986;44.028;20.466;2022-10-28T10:01:19;99441.34;;;31.22
66180;BMP280;52986;44.028;20.466;2022-10-28T10:03:49;99441.38;;;32.00
66180;BMP280;52986;44.028;20.466;2022-10-28T10:08:45;99430.97;;;31.61
66180;BMP280;52986;44.028;20.466;2022-10-28T10:11:29;99433.59;;;32.06
66180;BMP280;52986;44.028;20.466;2022-10-28T10:13:56;99432.59;;;32.19
66180;BMP280;52986;44.028;20.466;2022-10-28T10:19:05;99430.97;;;32.08
66180;BMP280;52986;44.028;20.466;2022-10-28T10:26:53;99428.59;;;33.88
66180;BMP280;52986;44.028;20.466;2022-10-28T10:29:19;99429.75;;;34.11
66180;BMP280;52986;44.028;20.466;2022-10-28T10:31:46;99427.69;;;34.12
66180;BMP280;52986;44.028;20.466;2022-10-28T10:34:25;99428.13;;;33.64
66180;BMP280;52986;44.028;20.466;2022-10-28T10:36:54;99423.53;;;33.42
66180;BMP280;52986;44.028;20.466;2022-10-28T10:39:33;99416.50;;;33.24
66180;BMP280;52986;44.028;20.466;2022-10-28T10:41:59;99413.16;;;33.43
66180;BMP280;52986;44.028;20.466;2022-10-28T10:44:31;99414.78;;;34.34
66180;BMP280;52986;44.028;20.466;2022-10-28T10:47:15;99405.41;;;34.02
66180;BMP280;52986;44.028;20.466;2022-10-28T10:49:41;99404.53;;;33.65
66180;BMP280;52986;44.028;20.466;2022-10-28T10:52:16;99397.81;;;33.86
66180;BMP280;52986;44.028;20.466;2022-10-28T10:54:47;99404.38;;;33.63
66180;BMP280;52986;44.028;20.466;2022-10-28T10:57:21;99393.50;;;34.29
66180;BMP280;52986;44.028;20.466;2022-10-28T10:59:50;99386.72;;;33.68
66180;BMP280;52986;44.028;20.466;2022-10-28T11:02:27;99389.34;;;33.15
66180;BMP280;52986;44.028;20.466;2022-10-28T11:05:01;99386.78;;;32.67
66180;BMP280;52986;44.028;20.466;2022-10-28T11:07:27;99381.03;;;32.08
66180;BMP280;52986;44.028;20.466;2022-10-28T11:09:53;99386.22;;;32.44
66180;BMP280;52986;44.028;20.466;2022-10-28T11:12:31;99391.03;;;31.64
66180;BMP280;52986;44.028;20.466;2022-10-28T11:17:33;99380.38;;;31.37
66180;BMP280;52986;44.028;20.466;2022-10-28T11:20:00;99379.88;;;31.08
66180;BMP280;52986;44.028;20.466;2022-10-28T11:22:50;99370.09;;;30.77
66180;BMP280;52986;44.028;20.466;2022-10-28T11:25:45;99372.09;;;31.22
66180;BMP280;52986;44.028;20.466;2022-10-28T11:43:13;99353.78;;;30.43
66180;BMP280;52986;44.028;20.466;2022-10-28T11:57:00;99333.28;;;29.80
66180;BMP280;52986;44.028;20.466;2022-10-28T12:20:54;99291.13;;;29.43
66180;BMP280;52986;44.028;20.466;2022-10-28T12:23:22;99295.28;;;29.01
66180;BMP280;52986;44.028;20.466;2022-10-28T12:25:52;99281.72;;;28.62
66180;BMP280;52986;44.028;20.466;2022-10-28T12:28:23;99276.66;;;28.32
66180;BMP280;52986;44.028;20.466;2022-10-28T12:30:51;99265.25;;;27.67
66180;BMP280;52986;44.028;20.466;2022-10-28T12:33:38;99269.41;;;26.76
66180;BMP280;52986;44.028;20.466;2022-10-28T12:38:37;99274.97;;;25.58
66180;BMP280;52986;44.028;20.466;2022-10-28T12:41:20;99271.84;;;25.24
66180;BMP280;52986;44.028;20.466;2022-10-28T12:43:48;99276.94;;;24.79
66180;BMP280;52986;44.028;20.466;2022-10-28T12:48:51;99271.72;;;24.35
66180;BMP280;52986;44.028;20.466;2022-10-28T12:51:28;99262.59;;;24.15
66180;BMP280;52986;44.028;20.466;2022-10-28T12:53:59;99260.88;;;24.07
66180;BMP280;52986;44.028;20.466;2022-10-28T12:56:31;99260.69;;;23.88
66180;BMP280;52986;44.028;20.466;2022-10-28T12:59:28;99263.25;;;23.75
66180;BMP280;52986;44.028;20.466;2022-10-28T13:01:56;99260.53;;;23.69
66180;BMP280;52986;44.028;20.466;2022-10-28T13:04:26;99259.78;;;23.69
66180;BMP280;52986;44.028;20.466;2022-10-28T13:28:16;99251.63;;;23.30
66180;BMP280;52986;44.028;20.466;2022-10-28T13:31:00;99247.66;;;23.31
66180;BMP280;52986;44.028;20.466;2022-10-28T13:33:27;99245.91;;;23.33
66180;BMP280;52986;44.028;20.466;2022-10-28T13:36:07;99246.41;;;23.26
66180;BMP280;52986;44.028;20.466;2022-10-28T13:38:33;99243.91;;;23.23
66180;BMP280;52986;44.028;20.466;2022-10-28T13:52:31;99238.69;;;23.30
66180;BMP280;52986;44.028;20.466;2022-10-28T13:54:57;99242.69;;;23.24
66180;BMP280;52986;44.028;20.466;2022-10-28T14:00:02;99242.66;;;23.29
66180;BMP280;52986;44.028;20.466;2022-10-28T14:05:10;99246.91;;;23.19
66180;BMP280;52986;44.028;20.466;2022-10-28T14:10:27;99251.88;;;23.09
66180;BMP280;52986;44.028;20.466;2022-10-28T14:12:56;99246.41;;;23.04
66180;BMP280;52986;44.028;20.466;2022-10-28T14:15:43;99241.69;;;22.93
66180;BMP280;52986;44.028;20.466;2022-10-28T14:20:40;99241.44;;;22.80
66180;BMP280;52986;44.028;20.466;2022-10-28T14:44:31;99264.09;;;22.16
66180;BMP280;52986;44.028;20.466;2022-10-28T14:49:40;99255.38;;;22.06
66180;BMP280;52986;44.028;20.466;2022-10-28T14:52:14;99256.81;;;22.01
66180;BMP280;52986;44.028;20.466;2022-10-28T14:54:45;99259.75;;;21.92
66180;BMP280;52986;44.028;20.466;2022-10-28T14:57:12;99264.41;;;21.81
66180;BMP280;52986;44.028;20.466;2022-10-28T14:59:43;99256.41;;;21.72
66180;BMP280;52986;44.028;20.466;2022-10-28T15:02:23;99259.09;;;21.66
66180;BMP280;52986;44.028;20.466;2022-10-28T15:05:13;99264.72;;;21.51
66180;BMP280;52986;44.028;20.466;2022-10-28T15:07:40;99257.69;;;21.39
66180;BMP280;52986;44.028;20.466;2022-10-28T15:12:39;99264.16;;;21.16
66180;BMP280;52986;44.028;20.466;2022-10-28T15:15:23;99269.25;;;21.03
66180;BMP280;52986;44.028;20.466;2022-10-28T15:17:49;99259.47;;;20.90
66180;BMP280;52986;44.028;20.466;2022-10-28T15:20:33;99267.53;;;20.79
66180;BMP280;52986;44.028;20.466;2022-10-28T15:25:36;99268.34;;;20.60
66180;BMP280;52986;44.028;20.466;2022-10-28T15:28:02;99269.69;;;20.49
66180;BMP280;52986;44.028;20.466;2022-10-28T15:30:27;99265.81;;;20.36
66180;BMP280;52986;44.028;20.466;2022-10-28T15:32:54;99268.19;;;20.28
66180;BMP280;52986;44.028;20.466;2022-10-28T15:35:39;99268.91;;;20.08
66180;BMP280;52986;44.028;20.466;2022-10-28T15:40:45;99267.22;;;19.76
66180;BMP280;52986;44.028;20.466;2022-10-28T15:43:18;99269.88;;;19.70
66180;BMP280;52986;44.028;20.466;2022-10-28T15:45:45;99270.00;;;19.61
66180;BMP280;52986;44.028;20.466;2022-10-28T15:48:13;99278.31;;;19.58
66180;BMP280;52986;44.028;20.466;2022-10-28T15:50:39;99279.91;;;19.49
66180;BMP280;52986;44.028;20.466;2022-10-28T15:55:34;99287.50;;;19.16
66180;BMP280;52986;44.028;20.466;2022-10-28T15:58:01;99283.09;;;19.04
66180;BMP280;52986;44.028;20.466;2022-10-28T16:00:34;99290.25;;;18.92
66180;BMP280;52986;44.028;20.466;2022-10-28T16:03:02;99289.38;;;18.86
66180;BMP280;52986;44.028;20.466;2022-10-28T16:10:41;99298.03;;;18.37
66180;BMP280;52986;44.028;20.466;2022-10-28T16:13:15;99302.06;;;18.18
66180;BMP280;52986;44.028;20.466;2022-10-28T16:16:08;99307.22;;;18.06
66180;BMP280;52986;44.028;20.466;2022-10-28T16:18:41;99307.28;;;17.88
66180;BMP280;52986;44.028;20.466;2022-10-28T16:21:07;99301.31;;;17.75
66180;BMP280;52986;44.028;20.466;2022-10-28T16:23:38;99302.97;;;17.63
66180;BMP280;52986;44.028;20.466;2022-10-28T16:26:05;99311.88;;;17.55
66180;BMP280;52986;44.028;20.466;2022-10-28T16:28:30;99309.00;;;17.49
66180;BMP280;52986;44.028;20.466;2022-10-28T16:30:58;99310.69;;;17.37
66180;BMP280;52986;44.028;20.466;2022-10-28T16:33:28;99307.09;;;17.31
66180;BMP280;52986;44.028;20.466;2022-10-28T16:35:54;99312.78;;;17.24
66180;BMP280;52986;44.028;20.466;2022-10-28T16:38:19;99315.69;;;17.21
66180;BMP280;52986;44.028;20.466;2022-10-28T16:40:45;99317.78;;;17.17
66180;BMP280;52986;44.028;20.466;2022-10-28T16:43:14;99314.59;;;17.00
66180;BMP280;52986;44.028;20.466;2022-10-28T16:45:40;99313.28;;;16.95
66180;BMP280;52986;44.028;20.466;2022-10-28T16:48:09;99323.91;;;16.81
66180;BMP280;52986;44.028;20.466;2022-10-28T16:50:35;99316.53;;;16.72
66180;BMP280;52986;44.028;20.466;2022-10-28T16:53:01;99310.03;;;16.69
66180;BMP280;52986;44.028;20.466;2022-10-28T16:55:27;99312.75;;;16.60
66180;BMP280;52986;44.028;20.466;2022-10-28T16:57:52;99307.28;;;16.51
66180;BMP280;52986;44.028;20.466;2022-10-28T17:00:18;99313.44;;;16.42
66180;BMP280;52986;44.028;20.466;2022-10-28T17:02:43;99318.41;;;16.35
66180;BMP280;52986;44.028;20.466;2022-10-28T17:05:19;99318.03;;;16.24
66180;BMP280;52986;44.028;20.466;2022-10-28T17:07:45;99320.84;;;16.11
66180;BMP280;52986;44.028;20.466;2022-10-28T17:10:11;99313.19;;;15.88
66180;BMP280;52986;44.028;20.466;2022-10-28T17:12:37;99320.78;;;15.80
66180;BMP280;52986;44.028;20.466;2022-10-28T17:15:02;99317.09;;;15.65
66180;BMP280;52986;44.028;20.466;2022-10-28T17:17:28;99322.00;;;15.57
66180;BMP280;52986;44.028;20.466;2022-10-28T17:19:53;99324.94;;;15.50
66180;BMP280;52986;44.028;20.466;2022-10-28T17:22:19;99329.22;;;15.38
66180;BMP280;52986;44.028;20.466;2022-10-28T17:24:44;99329.69;;;15.24
66180;BMP280;52986;44.028;20.466;2022-10-28T17:27:10;99328.50;;;15.25
66180;BMP280;52986;44.028;20.466;2022-10-28T17:29:37;99330.44;;;15.25
66180;BMP280;52986;44.028;20.466;2022-10-28T17:32:03;99333.56;;;15.23
66180;BMP280;52986;44.028;20.466;2022-10-28T17:34:29;99341.47;;;15.18
66180;BMP280;52986;44.028;20.466;2022-10-28T17:36:54;99342.16;;;15.09
66180;BMP280;52986;44.028;20.466;2022-10-28T17:39:19;99343.03;;;14.93
66180;BMP280;52986;44.028;20.466;2022-10-28T17:41:45;99344.69;;;14.91
66180;BMP280;52986;44.028;20.466;2022-10-28T17:44:10;99349.72;;;14.89
66180;BMP280;52986;44.028;20.466;2022-10-28T17:46:35;99344.00;;;14.87